Terminal Aerodrome Forecast
Issued by NWS

Home | Current Version | Previous Version | Text Only | Print | Product List | Glossary On
Versions: 1 2 3 4 5 6 7 8 9 10 11 12 13 14 15 16 17 18 19 20 21 22
082
FTUS41 KRLX 170241 AAA
TAFCKB
TAF AMD
KCKB 170241Z 1703/1724 00000KT P6SM SKC
     FM170500 00000KT 5SM BR SKC
     FM171000 00000KT 3SM BR SKC
     FM171300 00000KT P6SM SKC
     FM171700 24003KT P6SM FEW050=

USA.gov is the U.S. government's official web portal to all federal, state and local government web resources and services.